Warren, North Dakota
Current Conditions -  °F | °C
As of 8:53 AM on Monday 22 Dec 2014 (Local Time) from KFAR Reporting Station
Haze Haze  
Wind Chill: 32°   Ceiling: 300
Heat Index: 38°   Visibility: 2.5mi
Dew Point: 37°   Wind: 8mph
Humidity: 97%   Direction: 120°ESE
Pressure: 29.5"   Gusts: NA
Location:  46.672°N, 97.1156°W
Report Text: KFAR 221453Z 12007KT 2 1/2SM BR OVC003 03/03 A2950 RMK AO2 SLP999 T00330028 53003
Loading
Personal Weather Stations






























Interactive Weather Map New forecast layout! Learn more

10-Day Weather Forecast

Advertisements
Track Severe Weather on mobile